aviador You're here:

EPWR Decoded Metar

WROCLAW in POLAND
Report Time2017-08-22 16:30:00
UTC Time2017-08-22 16:41:02
Flight Rules vfr VFR
Wind320° at 12 kt
W.Decomp.*RWY 29: 10.7 kt HW 5.4 kt RCW
W.Rank320° ranks 10
Current wind is above 320° avg. (7.5)
Visibility9999 m
Phenomena:N/A
Clouds:Few 047 Hf
Expected CloudBase > 3,600 ft AGL from Temp-Dew spread
CeilingNone
Temp17°C (ISA +3)
Dew Point08°C (56% RH)
AAT12.3°C
QNH1018 hPa
Density Alt702 ft
Elevation397 ft
Report Wrong Elevation
Raw Report
EPWR 221630Z 32012KT 9999 FEW047 17/08 Q1018=

Extra information for EPWR:More info

Metar Taf Metar & Taf Last 4 Metars F.Rules Stats Wind Profile Meteogram Temp Stats Airport Information Weather charts Add Link Nearby VenuesMetar ALERT Operation Metar Decoded Social comments